Time;durP1;ratioP1;P1;durP2;ratioP2;P2;SDS_P1;SDS_P2;PMS_P1;PMS_P2;Temp;Humidity;BMP_temperature;BMP_pressure;BME280_temperature;BME280_humidity;BME280_pressure;Samples;Min_cycle;Max_cycle;Signal;HPM_P1;HPM_P2
2024/02/06 00:01:49;;;;;;;9.40;1.10;;;10.10;99.90;;;;;;4996332;28;20651;-87
2024/02/06 00:04:16;;;;;;;3.00;1.70;;;10.20;99.90;;;;;;4978721;28;20219;-90
2024/02/06 00:06:41;;;;;;;2.00;1.37;;;10.20;99.90;;;;;;5001668;28;20574;-87
2024/02/06 00:09:08;;;;;;;6.30;1.20;;;10.10;99.90;;;;;;4979009;28;20191;-89
2024/02/06 00:11:34;;;;;;;1.83;1.10;;;10.20;99.90;;;;;;4995013;28;20637;-88
2024/02/06 00:14:00;;;;;;;1.70;1.60;;;10.20;99.90;;;;;;4995178;28;20219;-89
2024/02/06 00:16:26;;;;;;;6.27;1.33;;;10.20;99.90;;;;;;4995236;28;20636;-88
2024/02/06 00:18:52;;;;;;;2.73;0.93;;;10.10;99.90;;;;;;4985238;28;20231;-89
2024/02/06 00:21:17;;;;;;;2.07;1.67;;;10.10;99.90;;;;;;5001427;28;20508;-87
2024/02/06 00:23:43;;;;;;;0.30;0.30;;;10.20;99.90;;;;;;4962258;28;20226;-88
2024/02/06 00:26:09;;;;;;;4.63;0.87;;;10.20;99.90;;;;;;4994851;28;20226;-88
2024/02/06 00:28:35;;;;;;;0.30;0.30;;;10.20;99.90;;;;;;4980231;28;20246;-91
2024/02/06 00:31:01;;;;;;;3.20;1.53;;;10.00;99.90;;;;;;4979080;28;20215;-88
2024/02/06 00:33:27;;;;;;;2.73;1.23;;;10.10;99.90;;;;;;4979424;28;20192;-88
2024/02/06 00:35:53;;;;;;;3.97;1.37;;;10.10;99.90;;;;;;4961292;28;20586;-89
2024/02/06 00:38:19;;;;;;;3.03;1.23;;;10.20;99.90;;;;;;4994566;28;20215;-89
2024/02/06 00:40:45;;;;;;;1.63;0.90;;;10.20;99.90;;;;;;4979117;28;20203;-89
2024/02/06 00:43:11;;;;;;;0.90;0.90;;;10.20;99.90;;;;;;4995275;28;20298;-88
2024/02/06 00:45:36;;;;;;;5.67;1.70;;;10.20;99.90;;;;;;4970847;28;20191;-88
2024/02/06 00:48:02;;;;;;;0.60;0.53;;;10.10;99.90;;;;;;4979249;28;20191;-89
2024/02/06 00:50:29;;;;;;;0.77;0.77;;;10.10;99.90;;;;;;4978913;28;20223;-87
2024/02/06 00:52:54;;;;;;;2.00;1.90;;;10.20;99.90;;;;;;4994240;28;20231;-88
2024/02/06 00:55:20;;;;;;;2.20;1.03;;;10.20;99.90;;;;;;4988108;28;20722;-90
2024/02/06 00:57:46;;;;;;;4.13;3.47;;;10.20;99.90;;;;;;4996842;28;20691;-87
2024/02/06 01:00:12;;;;;;;2.27;2.17;;;10.10;99.90;;;;;;4970779;28;20744;-89
2024/02/06 01:02:38;;;;;;;4.53;1.13;;;10.20;99.90;;;;;;4994989;28;20207;-89
2024/02/06 01:05:04;;;;;;;0.47;0.43;;;10.10;99.90;;;;;;4978388;28;20246;-88
2024/02/06 01:07:30;;;;;;;10.47;1.63;;;10.20;99.90;;;;;;4994559;28;20223;-88
2024/02/06 01:09:56;;;;;;;2.07;1.20;;;10.20;99.90;;;;;;4984988;28;20715;-88
2024/02/06 01:12:22;;;;;;;6.83;1.80;;;10.20;99.90;;;;;;4977343;28;20298;-87
2024/02/06 01:14:48;;;;;;;1.67;1.67;;;10.20;99.90;;;;;;4993752;28;20226;-88
2024/02/06 01:17:15;;;;;;;3.43;1.43;;;10.20;99.90;;;;;;4987909;28;20226;-87
2024/02/06 01:19:40;;;;;;;4.83;2.63;;;10.20;99.90;;;;;;4992867;28;20596;-89
2024/02/06 01:22:06;;;;;;;1.43;1.33;;;10.20;99.90;;;;;;4994037;28;20342;-88
2024/02/06 01:24:32;;;;;;;3.73;1.63;;;10.20;99.90;;;;;;4977766;28;20197;-87
2024/02/06 01:26:59;;;;;;;22.17;2.10;;;10.20;99.90;;;;;;4978356;28;20187;-88
2024/02/06 01:29:26;;;;;;;1.43;0.63;;;10.20;99.90;;;;;;4976729;28;20216;-88
2024/02/06 01:31:51;;;;;;;4.97;1.67;;;10.20;99.90;;;;;;4977931;28;20246;-90
2024/02/06 01:34:18;;;;;;;3.17;1.50;;;10.20;99.90;;;;;;4977116;28;20246;-88
2024/02/06 01:36:44;;;;;;;3.70;1.37;;;10.10;99.90;;;;;;4994192;28;20184;-87
2024/02/06 01:39:11;;;;;;;0.90;0.90;;;10.10;99.90;;;;;;4961894;28;20851;-88
2024/02/06 01:41:37;;;;;;;2.93;1.17;;;10.20;99.90;;;;;;4994120;28;20207;-87
2024/02/06 01:44:03;;;;;;;0.87;0.83;;;10.20;99.90;;;;;;4978224;28;20249;-89
2024/02/06 01:46:30;;;;;;;5.20;0.97;;;10.20;99.90;;;;;;4977385;28;20246;-87
2024/02/06 01:48:56;;;;;;;1.20;0.80;;;10.20;99.90;;;;;;4978017;28;20599;-88
2024/02/06 01:51:26;;;;;;;2.43;1.30;;;10.20;99.90;;;;;;4978071;28;20203;-88
2024/02/06 01:53:53;;;;;;;5.10;1.73;;;10.30;99.90;;;;;;5008720;28;20634;-89
2024/02/06 01:56:19;;;;;;;2.07;1.73;;;10.10;99.90;;;;;;4993314;28;20219;-88
2024/02/06 01:58:46;;;;;;;1.33;1.33;;;10.20;99.90;;;;;;4961891;28;20250;-89
2024/02/06 02:01:13;;;;;;;0.97;0.87;;;10.20;99.90;;;;;;4974603;28;20220;-88
2024/02/06 02:03:39;;;;;;;2.30;1.43;;;10.20;99.90;;;;;;4978610;28;20265;-89
2024/02/06 02:06:05;;;;;;;1.23;0.77;;;10.20;99.90;;;;;;4991185;28;20259;-88
2024/02/06 02:08:35;;;;;;;1.00;0.73;;;10.10;99.90;;;;;;4976961;28;20237;-88
2024/02/06 02:11:03;;;;;;;6.57;0.80;;;10.10;99.90;;;;;;4993135;28;20298;-89
2024/02/06 02:13:29;;;;;;;2.27;0.70;;;10.10;99.90;;;;;;4977710;28;20326;-88
2024/02/06 02:15:56;;;;;;;2.40;1.77;;;10.20;99.90;;;;;;4992839;28;20216;-89
2024/02/06 02:18:22;;;;;;;1.20;1.10;;;10.10;99.90;;;;;;4978716;28;20668;-88
2024/02/06 02:20:48;;;;;;;2.63;1.50;;;10.20;99.90;;;;;;4994439;28;20250;-88
2024/02/06 02:23:13;;;;;;;1.17;1.07;;;10.10;99.90;;;;;;4978340;28;20273;-88
2024/02/06 02:25:39;;;;;;;0.80;0.80;;;10.10;99.90;;;;;;4994201;28;20219;-88
2024/02/06 02:28:06;;;;;;;6.90;1.33;;;10.10;99.90;;;;;;4977300;28;20732;-90
2024/02/06 02:30:33;;;;;;;3.73;1.77;;;10.10;99.90;;;;;;4994581;28;20190;-88
2024/02/06 02:32:59;;;;;;;1.97;1.03;;;10.20;99.90;;;;;;4973327;28;20642;-88
2024/02/06 02:35:29;;;;;;;8.57;1.50;;;10.20;99.90;;;;;;4992993;28;20872;-91
2024/02/06 02:37:54;;;;;;;0.57;0.33;;;10.20;99.90;;;;;;4977175;28;20225;-89
2024/02/06 02:40:20;;;;;;;1.40;0.93;;;10.10;99.90;;;;;;4976582;28;20211;-89
2024/02/06 02:42:46;;;;;;;2.73;2.47;;;10.10;99.90;;;;;;4977601;28;20779;-89
2024/02/06 02:45:12;;;;;;;3.77;1.43;;;10.10;99.90;;;;;;4980245;28;20175;-89
2024/02/06 02:47:38;;;;;;;12.33;2.03;;;10.20;99.90;;;;;;4983078;28;20231;-88
2024/02/06 02:50:04;;;;;;;0.50;0.50;;;10.20;99.90;;;;;;4980545;28;20285;-92
2024/02/06 02:52:30;;;;;;;1.80;1.70;;;10.20;99.90;;;;;;4974883;28;20230;-89
2024/02/06 02:54:55;;;;;;;4.73;2.20;;;10.20;99.90;;;;;;4997064;28;20621;-88
2024/02/06 02:57:21;;;;;;;4.07;2.33;;;10.10;99.90;;;;;;4992309;28;20219;-87
2024/02/06 02:59:47;;;;;;;0.97;0.97;;;10.10;99.90;;;;;;4986968;28;20224;-89
2024/02/06 03:02:13;;;;;;;3.90;1.07;;;10.20;99.90;;;;;;4981917;28;20218;-89
2024/02/06 03:04:38;;;;;;;18.30;1.80;;;10.10;99.90;;;;;;4987957;28;20250;-88
2024/02/06 03:07:04;;;;;;;5.93;1.90;;;10.20;99.90;;;;;;4975767;28;20219;-89
2024/02/06 03:09:30;;;;;;;5.00;0.70;;;10.20;99.90;;;;;;4987819;28;20195;-88
2024/02/06 03:11:56;;;;;;;2.17;1.80;;;10.20;99.90;;;;;;4990157;28;20211;-87
2024/02/06 03:14:22;;;;;;;0.57;0.57;;;10.10;99.90;;;;;;4980965;28;20667;-90
2024/02/06 03:16:48;;;;;;;5.93;0.60;;;10.10;99.90;;;;;;4980136;28;20250;-90
2024/02/06 03:19:13;;;;;;;4.23;1.47;;;10.20;99.90;;;;;;4980406;28;20282;-89
2024/02/06 03:21:39;;;;;;;0.90;0.73;;;10.20;99.90;;;;;;4988318;28;20290;-91
2024/02/06 03:24:05;;;;;;;7.83;1.03;;;10.20;99.90;;;;;;4980921;28;20199;-88
2024/02/06 03:26:31;;;;;;;12.57;1.47;;;10.10;99.90;;;;;;4980581;28;20218;-89
2024/02/06 03:28:57;;;;;;;7.17;1.23;;;10.20;99.90;;;;;;4980876;28;20219;-89
2024/02/06 03:31:23;;;;;;;2.13;2.03;;;10.20;99.90;;;;;;4980251;28;20223;-89
2024/02/06 03:33:49;;;;;;;1.00;0.97;;;10.20;99.90;;;;;;4996402;28;20187;-90
2024/02/06 03:36:15;;;;;;;0.80;0.80;;;10.20;99.90;;;;;;4996441;28;20723;-89
2024/02/06 03:38:44;;;;;;;2.47;1.20;;;10.20;99.90;;;;;;4979810;28;20238;-90
2024/02/06 03:41:09;;;;;;;7.87;1.23;;;10.10;99.90;;;;;;4990214;28;20251;-89
2024/02/06 03:43:35;;;;;;;0.87;0.60;;;10.20;99.90;;;;;;4979470;28;20238;-89
2024/02/06 03:46:01;;;;;;;2.40;1.50;;;10.20;99.90;;;;;;4978939;28;20222;-90
2024/02/06 03:48:27;;;;;;;1.50;1.40;;;10.20;99.90;;;;;;4984487;28;20199;-90
2024/02/06 03:50:53;;;;;;;9.73;1.73;;;10.20;99.90;;;;;;4996142;28;20694;-89
2024/02/06 03:53:18;;;;;;;1.10;1.00;;;10.20;99.90;;;;;;5001928;28;20231;-91
2024/02/06 03:55:44;;;;;;;5.67;2.23;;;10.20;99.90;;;;;;4990044;28;20226;-89
2024/02/06 03:58:13;;;;;;;1.23;0.60;;;10.30;99.90;;;;;;4978941;28;20377;-91
2024/02/06 04:00:41;;;;;;;9.20;1.23;;;10.20;99.90;;;;;;4979891;28;20195;-90
2024/02/06 04:03:07;;;;;;;1.47;0.87;;;10.20;99.90;;;;;;4979639;28;20191;-90
2024/02/06 04:05:33;;;;;;;17.07;2.73;;;10.20;99.90;;;;;;4979438;28;20230;-90
2024/02/06 04:07:59;;;;;;;7.10;2.60;;;10.30;99.90;;;;;;4998501;28;20219;-89
2024/02/06 04:10:25;;;;;;;8.37;2.73;;;10.30;99.90;;;;;;4978809;28;20582;-90
2024/02/06 04:12:51;;;;;;;5.13;2.30;;;10.30;99.90;;;;;;4962832;28;20285;-89
2024/02/06 04:15:17;;;;;;;2.30;1.67;;;10.30;99.90;;;;;;4990384;28;20191;-90
2024/02/06 04:17:43;;;;;;;1.60;0.63;;;10.30;99.90;;;;;;4980693;28;20691;-89
2024/02/06 04:20:09;;;;;;;5.63;1.53;;;10.40;99.90;;;;;;4979089;28;20277;-89
2024/02/06 04:22:35;;;;;;;8.40;1.80;;;10.30;99.90;;;;;;4995531;28;20207;-89
2024/02/06 04:25:01;;;;;;;0.70;0.70;;;10.40;99.90;;;;;;4980205;28;20302;-91
2024/02/06 04:27:26;;;;;;;13.57;0.57;;;10.40;99.90;;;;;;4996351;28;20953;-91
2024/02/06 04:29:53;;;;;;;1.70;1.60;;;10.50;99.90;;;;;;4979233;28;20306;-89
2024/02/06 04:32:19;;;;;;;3.77;2.60;;;10.40;99.90;;;;;;4979660;28;20229;-89
2024/02/06 04:34:44;;;;;;;4.40;0.83;;;10.50;99.90;;;;;;4979487;28;20578;-89
2024/02/06 04:37:10;;;;;;;2.40;1.13;;;10.50;99.90;;;;;;4995303;28;20239;-89
2024/02/06 04:39:36;;;;;;;1.60;0.93;;;10.50;99.90;;;;;;4978169;28;20234;-90
2024/02/06 04:42:04;;;;;;;0.87;0.67;;;10.50;99.90;;;;;;4980102;28;20188;-89
2024/02/06 04:44:30;;;;;;;8.20;1.47;;;10.60;99.90;;;;;;4989597;28;20222;-90
2024/02/06 04:46:57;;;;;;;3.47;1.63;;;10.50;99.90;;;;;;4979544;28;20554;-90
2024/02/06 04:49:23;;;;;;;0.53;0.53;;;10.60;99.90;;;;;;4976709;28;20688;-89
2024/02/06 04:51:49;;;;;;;5.77;1.63;;;10.60;99.90;;;;;;4978375;28;20184;-89
2024/02/06 04:54:14;;;;;;;4.57;0.63;;;10.50;99.90;;;;;;4976399;28;20754;-90
2024/02/06 04:56:40;;;;;;;7.20;1.23;;;10.50;99.90;;;;;;4978236;28;20688;-89
2024/02/06 04:59:06;;;;;;;10.10;1.83;;;10.70;99.90;;;;;;4976244;28;20285;-91
2024/02/06 05:01:33;;;;;;;3.80;0.50;;;10.60;99.90;;;;;;4978347;28;20219;-90
2024/02/06 05:03:59;;;;;;;0.80;0.80;;;10.60;99.90;;;;;;4979778;28;20223;-89
2024/02/06 05:06:25;;;;;;;1.60;0.97;;;10.70;99.90;;;;;;4989360;28;20666;-94
2024/02/06 05:08:51;;;;;;;2.57;2.37;;;10.70;99.90;;;;;;5007161;28;20630;-90
2024/02/06 05:11:17;;;;;;;1.87;1.77;;;10.70;99.90;;;;;;4994979;28;20227;-90
2024/02/06 05:13:44;;;;;;;8.43;1.23;;;10.60;99.90;;;;;;4977905;28;20223;-90
2024/02/06 05:16:10;;;;;;;0.80;0.40;;;10.70;99.90;;;;;;4978864;28;20211;-87
2024/02/06 05:18:36;;;;;;;0.73;0.73;;;10.70;99.90;;;;;;5003562;28;20302;-88
2024/02/06 05:21:02;;;;;;;2.77;0.80;;;10.60;99.90;;;;;;4994328;28;20640;-88
2024/02/06 05:23:27;;;;;;;0.73;0.73;;;10.60;99.90;;;;;;4976143;28;20242;-90
2024/02/06 05:25:53;;;;;;;3.47;1.73;;;10.70;99.90;;;;;;4977859;28;20223;-91
2024/02/06 05:28:20;;;;;;;1.83;0.40;;;10.70;99.90;;;;;;4977765;28;20215;-90
2024/02/06 05:30:46;;;;;;;0.43;0.43;;;10.70;99.90;;;;;;4986303;28;20657;-89
2024/02/06 05:33:12;;;;;;;18.57;2.23;;;10.60;99.90;;;;;;4990556;28;20279;-88
2024/02/06 05:35:38;;;;;;;5.40;1.40;;;10.70;99.90;;;;;;4977316;28;20226;-87
2024/02/06 05:38:04;;;;;;;1.60;0.50;;;10.70;99.90;;;;;;4977557;28;20223;-87
2024/02/06 05:40:30;;;;;;;2.93;1.10;;;10.70;99.90;;;;;;4977974;28;20215;-89
2024/02/06 05:42:55;;;;;;;0.40;0.40;;;10.70;99.90;;;;;;4977683;28;20598;-89
2024/02/06 05:45:22;;;;;;;2.93;0.90;;;10.70;99.90;;;;;;4979171;28;20190;-88
2024/02/06 05:47:47;;;;;;;1.67;1.57;;;10.70;99.90;;;;;;4995036;28;20219;-88
2024/02/06 05:50:13;;;;;;;11.63;0.97;;;10.70;99.90;;;;;;4979942;28;20710;-88
2024/02/06 05:52:39;;;;;;;0.73;0.67;;;10.60;99.90;;;;;;4980368;28;20295;-89
2024/02/06 05:55:06;;;;;;;0.73;0.50;;;10.70;99.90;;;;;;4991549;28;20228;-89
2024/02/06 05:57:32;;;;;;;0.43;0.43;;;10.70;99.90;;;;;;4975396;28;20684;-90
2024/02/06 05:59:58;;;;;;;6.97;2.27;;;10.70;99.90;;;;;;4975689;28;20279;-89
2024/02/06 06:02:24;;;;;;;2.10;2.00;;;10.70;99.90;;;;;;4974826;28;20218;-88
2024/02/06 06:04:49;;;;;;;8.40;2.30;;;10.70;99.90;;;;;;4976248;28;20676;-89
2024/02/06 06:07:15;;;;;;;4.23;0.97;;;10.70;99.90;;;;;;4975349;28;20234;-88
2024/02/06 06:09:41;;;;;;;2.20;2.00;;;10.70;99.90;;;;;;4973856;28;20188;-87
2024/02/06 06:12:08;;;;;;;2.17;1.00;;;10.80;99.90;;;;;;4975696;28;20537;-87
2024/02/06 06:14:33;;;;;;;0.93;0.67;;;10.70;99.90;;;;;;4973217;28;20222;-88
2024/02/06 06:16:59;;;;;;;7.03;2.20;;;10.80;99.90;;;;;;4975000;28;20223;-87
2024/02/06 06:19:25;;;;;;;2.93;1.17;;;10.70;99.90;;;;;;4974453;28;20227;-88
2024/02/06 06:21:51;;;;;;;9.13;1.60;;;10.70;99.90;;;;;;4972664;28;20223;-88
2024/02/06 06:24:17;;;;;;;3.53;0.73;;;10.70;99.90;;;;;;4973198;28;20551;-90
2024/02/06 06:26:42;;;;;;;0.53;0.53;;;10.80;99.90;;;;;;4939785;28;20697;-90
2024/02/06 06:29:08;;;;;;;0.20;0.20;;;10.70;99.90;;;;;;4974487;28;20208;-88
2024/02/06 06:31:34;;;;;;;0.60;0.60;;;10.70;99.90;;;;;;4973693;28;20211;-88
2024/02/06 06:34:00;;;;;;;3.50;0.83;;;10.70;99.90;;;;;;4973574;28;20212;-88
2024/02/06 06:36:26;;;;;;;1.70;0.77;;;10.70;99.90;;;;;;4975506;28;20243;-88
2024/02/06 06:38:54;;;;;;;5.10;1.47;;;10.70;99.90;;;;;;4973681;28;20216;-88
2024/02/06 06:41:24;;;;;;;10.77;2.57;;;10.70;99.90;;;;;;4973902;28;20219;-90
2024/02/06 06:43:52;;;;;;;2.53;1.53;;;10.70;99.90;;;;;;4972780;28;20249;-87
2024/02/06 06:46:17;;;;;;;1.53;0.57;;;10.70;99.90;;;;;;4972507;28;20270;-93
2024/02/06 06:48:43;;;;;;;10.27;0.50;;;10.70;99.90;;;;;;4972294;28;20200;-88
2024/02/06 06:51:12;;;;;;;0.70;0.60;;;10.70;99.90;;;;;;4972256;28;20196;-86
2024/02/06 06:53:38;;;;;;;3.90;0.70;;;10.70;99.90;;;;;;4958670;28;20223;-85
2024/02/06 06:56:04;;;;;;;4.20;1.40;;;10.70;99.90;;;;;;4982779;28;20274;-85
2024/02/06 06:58:30;;;;;;;2.50;2.30;;;10.70;99.90;;;;;;4973929;28;20715;-85
2024/02/06 07:00:56;;;;;;;6.80;1.27;;;10.60;99.90;;;;;;4990592;28;20218;-87
2024/02/06 07:03:22;;;;;;;0.43;0.43;;;10.60;99.90;;;;;;4974961;28;20191;-86
2024/02/06 07:05:52;;;;;;;1.50;1.13;;;10.70;99.90;;;;;;4983889;28;20263;-87
2024/02/06 07:08:18;;;;;;;1.47;1.37;;;10.70;99.90;;;;;;4976180;28;20229;-89
2024/02/06 07:10:44;;;;;;;1.80;0.70;;;10.70;99.90;;;;;;4975582;28;20211;-88
2024/02/06 07:13:09;;;;;;;6.23;0.43;;;10.70;99.90;;;;;;4984879;28;20610;-89
2024/02/06 07:15:40;;;;;;;2.70;1.30;;;10.70;99.90;;;;;;4973989;28;20728;-86
2024/02/06 07:18:06;;;;;;;12.67;1.83;;;10.60;99.90;;;;;;4983957;28;20211;-88
2024/02/06 07:20:32;;;;;;;2.67;1.10;;;10.60;99.90;;;;;;4984516;28;20215;-88
2024/02/06 07:22:58;;;;;;;5.50;1.63;;;10.60;99.90;;;;;;4974590;28;20681;-90
2024/02/06 07:25:24;;;;;;;2.80;2.10;;;10.60;99.90;;;;;;4989418;28;20249;-90
2024/02/06 07:27:52;;;;;;;5.90;1.73;;;10.60;99.90;;;;;;4975680;28;20187;-89
2024/02/06 07:30:17;;;;;;;0.43;0.43;;;10.70;99.90;;;;;;4986464;28;20219;-88
2024/02/06 07:32:44;;;;;;;0.63;0.63;;;10.70;99.90;;;;;;4993386;28;20231;-89
2024/02/06 07:35:13;;;;;;;2.90;1.33;;;10.70;99.90;;;;;;4978664;28;20691;-89
2024/02/06 07:37:39;;;;;;;6.60;1.87;;;10.70;99.90;;;;;;4989952;28;20430;-88
2024/02/06 07:40:08;;;;;;;5.77;1.90;;;10.80;99.90;;;;;;4979541;28;20266;-87
2024/02/06 07:42:34;;;;;;;1.60;0.77;;;10.80;99.90;;;;;;4978575;28;20187;-90
2024/02/06 07:45:00;;;;;;;8.73;2.43;;;10.80;99.90;;;;;;4980813;28;20187;-88
2024/02/06 07:47:26;;;;;;;0.20;0.20;;;10.80;99.90;;;;;;4977143;28;20238;-89
2024/02/06 07:49:51;;;;;;;0.33;0.33;;;10.80;99.90;;;;;;4980110;28;20211;-89
2024/02/06 07:52:18;;;;;;;2.23;1.53;;;10.80;99.90;;;;;;4979572;28;20272;-88
2024/02/06 07:54:43;;;;;;;0.20;0.20;;;10.90;99.90;;;;;;4993792;28;20595;-88
2024/02/06 07:57:10;;;;;;;3.77;0.97;;;10.90;99.90;;;;;;4989058;28;20200;-89
2024/02/06 07:59:35;;;;;;;4.30;1.27;;;11.00;99.90;;;;;;4977653;28;20211;-87
2024/02/06 08:02:01;;;;;;;4.37;2.20;;;10.90;99.90;;;;;;4978028;28;20210;-88
2024/02/06 08:04:28;;;;;;;10.73;1.03;;;11.00;99.90;;;;;;4968961;28;20226;-88
2024/02/06 08:06:54;;;;;;;0.60;0.40;;;11.00;99.90;;;;;;5006474;28;20290;-88
2024/02/06 08:09:20;;;;;;;1.90;0.67;;;11.10;99.90;;;;;;4979182;28;20287;-89
2024/02/06 08:11:46;;;;;;;0.40;0.40;;;11.10;99.90;;;;;;4978218;28;20219;-88
2024/02/06 08:14:13;;;;;;;1.67;1.10;;;11.10;99.90;;;;;;4983987;28;20230;-88
2024/02/06 08:16:42;;;;;;;7.13;1.40;;;11.10;99.90;;;;;;4979493;28;20670;-89
2024/02/06 08:19:13;;;;;;;0.53;0.53;;;11.10;99.90;;;;;;4995820;28;20215;-89
2024/02/06 08:21:39;;;;;;;1.93;1.03;;;11.10;99.90;;;;;;4978853;28;20203;-89
2024/02/06 08:24:08;;;;;;;0.70;0.70;;;11.10;99.90;;;;;;4981146;28;20201;-91
2024/02/06 08:26:34;;;;;;;0.63;0.63;;;11.10;99.90;;;;;;4983853;28;20242;-89
2024/02/06 08:29:02;;;;;;;12.53;1.73;;;11.10;99.90;;;;;;4981315;28;20255;-88
2024/02/06 08:31:28;;;;;;;0.50;0.50;;;11.20;99.90;;;;;;4987538;28;20247;-92
2024/02/06 08:33:54;;;;;;;2.53;1.90;;;11.10;99.90;;;;;;4992417;28;20234;-89
2024/02/06 08:36:19;;;;;;;7.00;2.53;;;11.10;99.90;;;;;;4981998;28;20254;-90
2024/02/06 08:38:45;;;;;;;0.37;0.37;;;11.10;99.90;;;;;;4974594;28;20306;-89
2024/02/06 08:41:18;;;;;;;1.47;0.40;;;11.10;99.90;;;;;;4977777;28;20680;-91
2024/02/06 08:43:46;;;;;;;2.83;1.63;;;11.10;99.90;;;;;;4976741;28;20597;-89
2024/02/06 08:46:12;;;;;;;3.67;1.03;;;11.20;99.90;;;;;;4977534;28;20223;-89
2024/02/06 08:48:38;;;;;;;1.10;0.73;;;11.20;99.90;;;;;;4978787;28;20202;-88
2024/02/06 08:51:04;;;;;;;0.47;0.47;;;11.30;99.90;;;;;;4977049;28;20195;-88
2024/02/06 08:53:30;;;;;;;2.73;0.83;;;11.20;99.90;;;;;;4978707;28;20232;-89
2024/02/06 08:55:59;;;;;;;0.67;0.23;;;11.20;99.90;;;;;;4978551;28;20561;-89
2024/02/06 08:58:25;;;;;;;10.73;3.23;;;11.20;99.90;;;;;;4996903;28;20238;-90
2024/02/06 09:00:50;;;;;;;0.63;0.63;;;11.20;99.90;;;;;;4994429;28;20678;-87
2024/02/06 09:03:16;;;;;;;2.23;0.93;;;11.30;99.90;;;;;;4996284;28;20190;-88
2024/02/06 09:05:43;;;;;;;13.60;1.90;;;11.30;99.90;;;;;;4982028;28;20223;-88
2024/02/06 09:08:08;;;;;;;0.80;0.53;;;11.20;99.90;;;;;;4979259;28;20314;-88
2024/02/06 09:10:34;;;;;;;0.63;0.50;;;11.30;99.90;;;;;;4988735;28;20306;-88
2024/02/06 09:13:00;;;;;;;2.97;2.23;;;11.20;99.90;;;;;;4981344;28;20262;-88
2024/02/06 09:15:28;;;;;;;4.60;1.77;;;11.20;99.90;;;;;;4979882;28;20242;-89
2024/02/06 09:17:59;;;;;;;6.90;1.10;;;11.20;99.90;;;;;;4979852;28;20282;-88
2024/02/06 09:20:33;;;;;;;6.40;1.63;;;11.30;99.90;;;;;;5005048;28;20207;-90
2024/02/06 09:22:59;;;;;;;16.73;2.47;;;11.30;99.90;;;;;;4976558;28;20889;-87
2024/02/06 09:25:25;;;;;;;3.87;1.33;;;11.40;99.90;;;;;;4979143;28;20226;-87
2024/02/06 09:27:51;;;;;;;4.63;1.50;;;11.40;99.90;;;;;;4995082;28;20209;-88
2024/02/06 09:30:17;;;;;;;3.87;0.97;;;11.40;99.90;;;;;;4962312;28;20563;-88
2024/02/06 09:32:46;;;;;;;4.20;1.23;;;11.40;99.90;;;;;;4978535;28;20230;-91
2024/02/06 09:35:12;;;;;;;1.27;0.77;;;11.40;99.90;;;;;;4981391;28;20242;-88
2024/02/06 09:37:38;;;;;;;24.37;2.03;;;11.40;99.90;;;;;;4975913;28;20243;-88
2024/02/06 09:40:06;;;;;;;2.10;0.93;;;11.50;99.90;;;;;;4986781;28;20787;-87
2024/02/06 09:42:33;;;;;;;4.57;1.27;;;11.40;99.90;;;;;;4992489;28;20183;-88
2024/02/06 09:44:59;;;;;;;4.33;1.73;;;11.40;99.90;;;;;;4978050;28;20187;-88
2024/02/06 09:47:29;;;;;;;4.97;1.67;;;11.50;99.90;;;;;;4977835;28;20246;-87
2024/02/06 09:49:57;;;;;;;6.17;0.27;;;11.50;99.90;;;;;;4995760;28;20284;-88
2024/02/06 09:52:25;;;;;;;5.47;1.37;;;11.60;99.90;;;;;;4993701;28;20239;-89
2024/02/06 09:54:52;;;;;;;9.27;0.73;;;11.60;99.90;;;;;;4976703;28;20231;-87
2024/02/06 09:57:22;;;;;;;7.07;1.90;;;11.60;99.90;;;;;;4994039;28;20191;-88
2024/02/06 09:59:53;;;;;;;3.37;2.23;;;11.60;99.90;;;;;;4975393;28;20306;-88
2024/02/06 10:02:21;;;;;;;10.60;1.10;;;11.70;99.90;;;;;;4993989;28;20301;-88
2024/02/06 10:04:49;;;;;;;4.20;1.40;;;11.60;99.90;;;;;;4994937;28;20207;-88
2024/02/06 10:07:16;;;;;;;4.30;0.67;;;11.60;99.90;;;;;;4985697;28;20219;-87
2024/02/06 10:09:45;;;;;;;4.03;1.40;;;11.70;99.90;;;;;;4985336;28;20651;-88
2024/02/06 10:12:13;;;;;;;2.40;1.37;;;11.70;99.90;;;;;;4995864;28;20253;-88
2024/02/06 10:14:41;;;;;;;1.57;0.80;;;11.80;99.90;;;;;;4979950;28;20261;-88
2024/02/06 10:17:09;;;;;;;1.60;1.43;;;11.80;99.90;;;;;;4979233;28;20619;-89
2024/02/06 10:19:35;;;;;;;8.77;1.23;;;11.70;99.90;;;;;;4978306;28;20223;-89
2024/02/06 10:22:04;;;;;;;12.47;2.07;;;11.70;99.90;;;;;;4994854;28;20273;-86
2024/02/06 10:24:29;;;;;;;5.57;1.70;;;11.70;99.90;;;;;;4978839;28;20192;-88
2024/02/06 10:27:04;;;;;;;0.93;0.67;;;11.60;99.90;;;;;;4988749;28;20277;-89
2024/02/06 10:29:32;;;;;;;12.17;1.47;;;11.70;99.90;;;;;;4976297;28;20234;-89
2024/02/06 10:32:00;;;;;;;6.23;2.37;;;11.80;99.90;;;;;;4975735;28;20219;-90
2024/02/06 10:34:27;;;;;;;7.13;2.20;;;11.70;99.90;;;;;;4987829;28;20219;-87
2024/02/06 10:37:01;;;;;;;1.50;1.47;;;11.70;99.90;;;;;;4993237;28;20211;-88
2024/02/06 10:39:30;;;;;;;22.80;5.00;;;11.90;99.90;;;;;;4993870;28;20227;-89
2024/02/06 10:42:03;;;;;;;5.10;1.07;;;11.70;99.90;;;;;;4987835;28;20567;-89
2024/02/06 10:44:29;;;;;;;7.83;1.20;;;11.70;99.90;;;;;;4991413;28;20294;-90
2024/02/06 10:47:02;;;;;;;1.80;1.07;;;11.80;99.90;;;;;;4975324;28;20212;-88
2024/02/06 10:49:35;;;;;;;4.53;0.77;;;11.80;99.90;;;;;;4992925;28;20207;-89
2024/02/06 10:52:05;;;;;;;10.53;3.17;;;11.80;99.90;;;;;;4965370;28;20208;-89
2024/02/06 10:54:33;;;;;;;5.63;1.97;;;11.80;99.90;;;;;;4976123;28;20281;-90
2024/02/06 10:57:05;;;;;;;2.00;0.87;;;11.80;99.90;;;;;;4992783;28;20959;-89
2024/02/06 10:59:56;;;;;;;0.63;0.63;;;11.90;99.90;;;;;;4971412;28;20274;-88
2024/02/06 11:02:31;;;;;;;4.80;1.37;;;11.90;99.90;;;;;;4990119;28;20215;-89
2024/02/06 11:05:38;;;;;;;1.93;1.63;;;11.90;99.90;;;;;;4974997;28;20218;-88
2024/02/06 11:08:14;;;;;;;5.87;2.60;;;12.00;99.90;;;;;;4991070;28;20211;-89
2024/02/06 11:11:07;;;;;;;3.17;2.27;;;12.00;99.90;;;;;;4994274;28;20311;-88
2024/02/06 11:13:42;;;;;;;1.07;1.00;;;12.00;99.90;;;;;;4988911;28;20289;-89
2024/02/06 11:16:13;;;;;;;7.30;1.70;;;11.90;99.90;;;;;;4972711;28;20221;-89
2024/02/06 11:19:02;;;;;;;1.17;0.83;;;11.90;99.90;;;;;;4986823;28;20199;-87
2024/02/06 11:21:35;;;;;;;4.53;1.17;;;11.90;99.90;;;;;;4995458;28;20718;-89
2024/02/06 11:24:01;;;;;;;4.67;0.83;;;11.80;99.90;;;;;;4974551;28;20688;-88
2024/02/06 11:26:27;;;;;;;0.97;0.87;;;11.80;99.90;;;;;;4992116;28;20215;-88
2024/02/06 11:28:56;;;;;;;8.83;1.50;;;11.70;99.90;;;;;;4967859;28;20653;-89
2024/02/06 11:31:23;;;;;;;1.63;1.53;;;11.70;99.90;;;;;;4955929;28;20697;-90
2024/02/06 11:33:49;;;;;;;19.50;4.33;;;11.80;99.90;;;;;;4937783;28;20634;-88
2024/02/06 11:36:20;;;;;;;4.37;0.67;;;11.90;99.90;;;;;;4983538;28;20264;-89
2024/02/06 11:38:46;;;;;;;2.33;0.97;;;11.90;99.90;;;;;;4960579;28;20257;-88
2024/02/06 11:41:16;;;;;;;2.17;1.33;;;12.00;99.90;;;;;;4977650;28;20313;-89
2024/02/06 11:43:47;;;;;;;7.37;1.77;;;12.00;99.90;;;;;;4993825;28;20215;-88
2024/02/06 11:46:13;;;;;;;2.67;1.97;;;12.00;99.90;;;;;;4986961;28;20250;-88
2024/02/06 11:48:42;;;;;;;4.13;1.93;;;12.00;99.90;;;;;;4961636;28;20196;-89
2024/02/06 11:51:08;;;;;;;5.60;0.93;;;12.10;99.90;;;;;;4986032;28;20222;-91
2024/02/06 11:53:34;;;;;;;2.23;1.37;;;12.20;99.90;;;;;;4954775;28;20255;-89
2024/02/06 11:56:07;;;;;;;2.97;1.10;;;12.40;99.90;;;;;;4962329;28;20257;-90
2024/02/06 11:58:36;;;;;;;11.30;2.83;;;12.50;99.90;;;;;;4977319;28;20757;-91
2024/02/06 12:01:06;;;;;;;4.20;1.90;;;12.70;99.90;;;;;;4978170;28;20765;-90
2024/02/06 12:03:32;;;;;;;9.13;2.20;;;12.70;99.90;;;;;;4979861;28;20514;-91
2024/02/06 12:05:57;;;;;;;4.47;1.20;;;12.50;99.90;;;;;;4978654;28;20176;-89
2024/02/06 12:08:25;;;;;;;1.90;1.77;;;12.50;99.90;;;;;;4960920;28;20227;-89
2024/02/06 12:10:51;;;;;;;4.97;2.27;;;12.40;99.90;;;;;;4976867;28;20211;-89
2024/02/06 12:13:17;;;;;;;2.87;1.47;;;12.40;99.90;;;;;;4976918;28;20222;-89
2024/02/06 12:15:43;;;;;;;1.30;0.77;;;12.20;99.90;;;;;;4977503;28;20187;-90
2024/02/06 12:18:16;;;;;;;1.00;0.87;;;12.10;99.90;;;;;;4993477;28;20207;-89
2024/02/06 12:20:42;;;;;;;6.63;2.20;;;12.20;99.90;;;;;;4975489;28;20211;-89
2024/02/06 12:23:11;;;;;;;1.17;0.93;;;12.20;99.90;;;;;;4978726;28;20217;-88
2024/02/06 12:25:40;;;;;;;7.97;3.57;;;12.20;99.90;;;;;;4993358;28;20265;-90
2024/02/06 12:28:12;;;;;;;4.67;1.73;;;12.30;99.90;;;;;;5009438;28;20711;-92
2024/02/06 12:30:40;;;;;;;2.97;2.00;;;12.20;99.90;;;;;;4978273;28;20664;-90
2024/02/06 12:33:06;;;;;;;3.67;1.43;;;12.20;99.90;;;;;;4979442;28;20270;-89
2024/02/06 12:35:34;;;;;;;4.37;0.93;;;12.30;99.90;;;;;;4985577;28;20951;-89
2024/02/06 12:38:01;;;;;;;1.87;1.00;;;12.30;99.90;;;;;;4994028;28;20227;-91
2024/02/06 12:40:31;;;;;;;6.00;2.30;;;12.30;99.90;;;;;;4993155;28;20227;-90
2024/02/06 12:43:07;;;;;;;2.60;1.37;;;12.20;99.90;;;;;;4993782;28;20574;-89
2024/02/06 12:45:34;;;;;;;5.50;2.03;;;12.20;99.90;;;;;;4993235;28;20175;-89